メインページ
METAR-TAF:

METAR-TAF

空港 :

ブリュッセル, ベルギー

ブリュッセル空港

緯度: 50-54N, 経度: 004-32E, 海抜: 55m

現時点の気象観測

当レポートは28分前の22:50(UTC)に作成
無風
気温 17°C
湿度 94%
気圧 1018 hPa
視程10km以上
1,500メートル以下は雲なし、積乱雲なし

METAR: EBBR 272250Z 00000KT CAVOK 17/16 Q1018 NOSIG

時間: 01:18 (23:18 UTC)

予報

当レポートは6時間16分前の17:02(UTC)に作成
予報は27日の 18時(UTC)から 28日の 24時(UTC)まで有効
西/北西の風 7kt
視程10km以上
1,500メートル以下は雲なし、積乱雲なし
確率 30% :
27日の 18時(UTC)から 27日の 19時(UTC)まで一時的に
視程: 3500m
激しい雷雨, 雨, 雹
確率 40% :
28日の 02時(UTC)から 28日の 05時(UTC)まで一時的に
視程: 3000m
にわか雨, 激しい雷雨, 雨

TAF: EBBR 271702Z 2718/2824 30007KT CAVOK PROB30 TEMPO 2718/2719 3500 TSRAGR PROB40 TEMPO 2802/2805 3000 SHRA TSRA

4,000以上の空港の気象観測と天気予報(METAR報とTAF報)

利用可能な観測所は地図上に黄色い丸と赤い丸で示す。

丸の上にカーソルを重ねると観測所名を参照できる。

次にクリックすると気象観測と天気予報を参照できる。

マップの切り替え:黒色「×」印の緑ボタンをクリックして拡大、「-」印の緑ボタンをクリックして縮小、緑色の三角印をクリックして隣りの地図に切り替え


METAR-TAF: